Time;durP1;ratioP1;P1;durP2;ratioP2;P2;SDS_P1;SDS_P2;PMS_P1;PMS_P2;Temp;Humidity;BMP_temperature;BMP_pressure;BME280_temperature;BME280_humidity;BME280_pressure;Samples;Min_cycle;Max_cycle;Signal;HPM_P1;HPM_P2
2022/12/27 00:00:39;;;;;;;8.88;2.15;;;;;;;;;;4968083;28;20050;-89
2022/12/27 00:03:29;;;;;;;5.85;1.02;;;;;;;;;;4968450;28;20065;-89
2022/12/27 00:06:23;;;;;;;6.35;1.25;;;;;;;;;;4985420;28;20397;-89
2022/12/27 00:08:52;;;;;;;3.72;0.90;;;;;;;;;;4968553;28;20035;-89
2022/12/27 00:11:22;;;;;;;4.18;1.25;;;;;;;;;;4972142;28;20129;-89
2022/12/27 00:14:04;;;;;;;5.53;1.30;;;;;;;;;;4973477;28;20111;-89
2022/12/27 00:16:36;;;;;;;2.75;1.20;;;;;;;;;;4965377;28;20425;-89
2022/12/27 00:19:04;;;;;;;4.07;1.00;;;;;;;;;;4968875;28;20114;-89
2022/12/27 00:21:32;;;;;;;3.28;1.25;;;;;;;;;;4966749;28;20054;-89
2022/12/27 00:24:04;;;;;;;7.57;1.30;;;;;;;;;;4970638;28;20675;-90
2022/12/27 00:26:33;;;;;;;6.43;1.35;;;;;;;;;;4965805;28;20043;-89
2022/12/27 00:29:02;;;;;;;8.05;1.58;;;;;;;;;;4966300;28;20402;-89
2022/12/27 00:31:34;;;;;;;5.30;1.38;;;;;;;;;;4968803;28;20050;-89
2022/12/27 00:34:04;;;;;;;5.10;1.40;;;;;;;;;;4965980;28;20066;-89
2022/12/27 00:36:37;;;;;;;8.10;1.10;;;;;;;;;;4965838;28;20050;-89
2022/12/27 00:39:05;;;;;;;8.57;1.30;;;;;;;;;;4965468;28;20041;-89
2022/12/27 00:41:38;;;;;;;8.15;1.23;;;;;;;;;;4968807;28;20047;-88
2022/12/27 00:44:05;;;;;;;5.03;1.30;;;;;;;;;;4968895;28;20070;-89
2022/12/27 00:46:34;;;;;;;10.57;1.45;;;;;;;;;;4965874;28;20051;-89
2022/12/27 00:49:06;;;;;;;5.60;1.58;;;;;;;;;;4962632;28;20043;-90
2022/12/27 00:51:33;;;;;;;6.72;1.50;;;;;;;;;;4962238;28;20039;-90
2022/12/27 00:54:06;;;;;;;4.03;1.35;;;;;;;;;;4976156;28;20093;-90
2022/12/27 00:56:33;;;;;;;10.88;1.98;;;;;;;;;;4967639;28;20057;-89
2022/12/27 00:59:04;;;;;;;6.50;1.23;;;;;;;;;;4972179;28;20039;-89
2022/12/27 01:01:34;;;;;;;6.57;1.45;;;;;;;;;;4975746;28;20046;-89
2022/12/27 01:04:03;;;;;;;9.60;1.70;;;;;;;;;;4971316;28;20074;-89
2022/12/27 01:06:33;;;;;;;8.07;1.50;;;;;;;;;;4972523;28;20042;-90
2022/12/27 01:09:01;;;;;;;7.03;1.42;;;;;;;;;;4969954;28;20042;-89
2022/12/27 01:11:30;;;;;;;7.45;1.33;;;;;;;;;;4972782;28;20035;-89
2022/12/27 01:14:00;;;;;;;9.07;1.88;;;;;;;;;;4972176;28;20047;-89
2022/12/27 01:16:33;;;;;;;3.42;1.38;;;;;;;;;;4970478;28;20047;-89
2022/12/27 01:19:05;;;;;;;8.52;1.60;;;;;;;;;;4973540;28;20039;-88
2022/12/27 01:21:34;;;;;;;3.72;1.23;;;;;;;;;;4985202;28;20076;-89
2022/12/27 01:24:26;;;;;;;10.85;1.73;;;;;;;;;;4970519;28;20041;-89
2022/12/27 01:26:58;;;;;;;11.80;1.77;;;;;;;;;;4969354;28;20517;-89
2022/12/27 01:29:26;;;;;;;4.40;1.40;;;;;;;;;;4969420;28;20039;-89
2022/12/27 01:31:57;;;;;;;7.85;1.67;;;;;;;;;;4985142;28;20073;-89
2022/12/27 01:34:25;;;;;;;7.53;1.35;;;;;;;;;;4976026;28;20046;-89
2022/12/27 01:36:53;;;;;;;7.60;1.60;;;;;;;;;;4970652;28;20046;-90
2022/12/27 01:39:22;;;;;;;9.63;1.52;;;;;;;;;;4963491;28;20107;-90
2022/12/27 01:44:42;;;;;;;13.60;1.65;;;;;;;;;;4965704;28;20114;-89
2022/12/27 01:47:18;;;;;;;6.70;1.40;;;;;;;;;;4969275;28;20041;-89
2022/12/27 01:49:54;;;;;;;8.88;1.73;;;;;;;;;;4973367;28;20496;-89
2022/12/27 01:52:25;;;;;;;9.05;1.83;;;;;;;;;;4980860;28;20039;-89
2022/12/27 01:54:54;;;;;;;9.05;1.73;;;;;;;;;;4969466;28;20031;-89
2022/12/27 01:57:28;;;;;;;4.15;1.60;;;;;;;;;;4984814;28;20054;-89
2022/12/27 01:59:56;;;;;;;8.10;1.75;;;;;;;;;;4969035;28;20405;-90
2022/12/27 02:02:23;;;;;;;13.90;1.48;;;;;;;;;;4982264;28;20074;-89
2022/12/27 02:04:58;;;;;;;8.32;1.55;;;;;;;;;;4961944;28;20053;-89
2022/12/27 02:07:39;;;;;;;8.80;2.00;;;;;;;;;;4954605;28;20509;-89
2022/12/27 02:10:08;;;;;;;3.13;1.42;;;;;;;;;;4969264;28;20042;-89
2022/12/27 02:12:36;;;;;;;8.43;1.63;;;;;;;;;;4976475;28;20043;-90
2022/12/27 02:15:04;;;;;;;8.65;1.95;;;;;;;;;;4973943;28;20072;-89
2022/12/27 02:17:36;;;;;;;3.42;1.60;;;;;;;;;;4972560;28;20046;-89
2022/12/27 02:20:16;;;;;;;8.13;1.90;;;;;;;;;;4973601;28;20054;-90
2022/12/27 02:29:13;;;;;;;6.00;1.33;;;;;;;;;;4965955;28;20114;-89
2022/12/27 02:32:03;;;;;;;5.55;1.70;;;;;;;;;;4967235;28;20158;-89
2022/12/27 02:34:37;;;;;;;7.22;1.83;;;;;;;;;;4951509;28;20070;-89
2022/12/27 02:37:12;;;;;;;8.68;2.03;;;;;;;;;;4961692;28;20038;-89
2022/12/27 02:39:48;;;;;;;14.25;2.20;;;;;;;;;;4964188;28;20156;-90
2022/12/27 02:55:07;;;;;;;8.95;2.00;;;;;;;;;;4966614;28;20058;-89
2022/12/27 03:03:48;;;;;;;15.18;2.10;;;;;;;;;;4983784;28;20054;-89
2022/12/27 03:06:40;;;;;;;2.78;1.20;;;;;;;;;;4967771;28;20035;-89
2022/12/27 03:15:56;;;;;;;4.20;1.65;;;;;;;;;;4912898;29;20076;-90
2022/12/27 03:18:23;;;;;;;4.90;2.00;;;;;;;;;;4914208;29;20892;-89
2022/12/27 03:26:51;;;;;;;4.78;1.60;;;;;;;;;;4898586;29;20052;-89
2022/12/27 03:35:16;;;;;;;10.65;2.33;;;;;;;;;;4913413;29;20044;-89
2022/12/27 03:38:02;;;;;;;7.93;2.10;;;;;;;;;;4883999;29;21821;-89
2022/12/27 03:43:41;;;;;;;6.18;1.65;;;;;;;;;;4909817;29;20056;-89
2022/12/27 03:46:33;;;;;;;10.48;2.28;;;;;;;;;;4911768;29;20192;-89
2022/12/27 03:49:26;;;;;;;7.30;2.20;;;;;;;;;;4940769;28;20466;-89
2022/12/27 03:52:13;;;;;;;7.30;2.08;;;;;;;;;;4983102;28;20130;-89
2022/12/27 03:54:48;;;;;;;7.70;2.45;;;;;;;;;;4955011;28;20061;-89
2022/12/27 03:57:22;;;;;;;9.18;2.13;;;;;;;;;;4969164;28;20075;-89
2022/12/27 04:00:16;;;;;;;9.32;2.63;;;;;;;;;;4963436;28;21044;-89
2022/12/27 04:02:43;;;;;;;10.43;2.58;;;;;;;;;;4967616;28;20043;-89
2022/12/27 04:05:11;;;;;;;4.68;1.75;;;;;;;;;;4982992;28;20046;-89
2022/12/27 04:36:44;;;;;;;11.43;2.03;;;;;;;;;;4968579;28;21101;-89
2022/12/27 04:54:55;;;;;;;6.72;2.30;;;;;;;;;;4966637;28;20133;-89
2022/12/27 04:57:11;;;;;;;9.73;2.60;;;;;;;;;;4969955;28;20839;-89
2022/12/27 05:02:50;;;;;;;6.72;2.55;;;;;;;;;;4968554;28;20027;-89
2022/12/27 05:05:18;;;;;;;7.38;2.67;;;;;;;;;;4969103;28;20508;-89
2022/12/27 05:16:04;;;;;;;8.13;2.75;;;;;;;;;;4968671;28;20133;-89
2022/12/27 05:18:31;;;;;;;6.25;3.08;;;;;;;;;;4969635;28;20145;-89
2022/12/27 05:21:04;;;;;;;8.88;2.30;;;;;;;;;;4968689;28;20081;-89
2022/12/27 05:26:43;;;;;;;3.72;1.98;;;;;;;;;;4969114;28;20118;-89
2022/12/27 05:29:35;;;;;;;8.82;2.80;;;;;;;;;;4964440;28;20176;-89
2022/12/27 05:32:07;;;;;;;8.60;2.92;;;;;;;;;;4969455;28;20043;-89
2022/12/27 05:34:45;;;;;;;8.25;2.60;;;;;;;;;;4971237;28;20039;-89
2022/12/27 05:37:14;;;;;;;6.05;2.63;;;;;;;;;;4964432;28;20042;-89
2022/12/27 05:39:42;;;;;;;6.53;2.78;;;;;;;;;;4966058;28;20432;-90
2022/12/27 05:42:09;;;;;;;8.55;2.90;;;;;;;;;;4956421;28;20075;-89
2022/12/27 05:44:37;;;;;;;7.65;2.58;;;;;;;;;;4965841;28;20054;-89
2022/12/27 05:47:05;;;;;;;6.70;2.35;;;;;;;;;;4962660;28;20090;-89
2022/12/27 05:49:34;;;;;;;4.78;2.35;;;;;;;;;;4965786;28;20121;-89
2022/12/27 05:52:01;;;;;;;6.25;2.38;;;;;;;;;;4965188;28;20039;-89
2022/12/27 05:54:33;;;;;;;10.30;2.90;;;;;;;;;;4983379;28;20062;-90
2022/12/27 05:57:01;;;;;;;6.18;2.30;;;;;;;;;;4965890;28;20125;-90
2022/12/27 05:59:29;;;;;;;4.75;2.15;;;;;;;;;;4968151;28;20043;-89
2022/12/27 06:01:57;;;;;;;7.68;2.38;;;;;;;;;;4965002;28;20046;-89
2022/12/27 06:04:26;;;;;;;11.65;2.65;;;;;;;;;;4949910;28;20523;-89
2022/12/27 06:06:53;;;;;;;9.30;2.35;;;;;;;;;;4964215;28;20138;-90
2022/12/27 06:09:22;;;;;;;6.40;2.83;;;;;;;;;;4969418;28;20031;-89
2022/12/27 06:12:13;;;;;;;5.68;2.13;;;;;;;;;;4980892;28;20046;-89
2022/12/27 06:14:41;;;;;;;9.43;2.92;;;;;;;;;;4964752;28;20035;-90
2022/12/27 06:17:10;;;;;;;7.43;2.55;;;;;;;;;;4965057;28;20047;-89
2022/12/27 06:19:44;;;;;;;7.72;2.78;;;;;;;;;;4966212;28;20038;-89
2022/12/27 06:22:12;;;;;;;6.82;2.50;;;;;;;;;;4969274;28;20043;-89
2022/12/27 06:24:39;;;;;;;7.55;2.53;;;;;;;;;;4972171;28;20050;-89
2022/12/27 06:27:07;;;;;;;5.43;2.50;;;;;;;;;;4966685;28;20039;-90
2022/12/27 06:29:35;;;;;;;14.02;2.58;;;;;;;;;;4971365;28;20629;-89
2022/12/27 06:32:30;;;;;;;8.60;2.30;;;;;;;;;;4967891;28;20090;-89
2022/12/27 06:34:59;;;;;;;7.97;2.45;;;;;;;;;;4970780;28;20497;-90
2022/12/27 06:37:29;;;;;;;7.32;2.03;;;;;;;;;;4970483;28;20046;-89
2022/12/27 06:40:02;;;;;;;5.30;2.28;;;;;;;;;;4981769;28;20116;-89
2022/12/27 06:42:30;;;;;;;8.25;2.30;;;;;;;;;;4967821;28;20047;-89
2022/12/27 06:45:21;;;;;;;6.10;2.10;;;;;;;;;;4966264;28;20114;-89
2022/12/27 06:47:49;;;;;;;10.95;2.38;;;;;;;;;;4973987;28;20053;-89
2022/12/27 06:50:17;;;;;;;10.45;3.42;;;;;;;;;;4970858;28;20121;-90
2022/12/27 06:52:50;;;;;;;7.18;2.88;;;;;;;;;;4973064;28;20047;-89
2022/12/27 06:55:17;;;;;;;6.60;2.20;;;;;;;;;;4966989;28;20073;-89
2022/12/27 06:57:45;;;;;;;4.97;2.05;;;;;;;;;;4974470;28;20039;-89
2022/12/27 07:00:14;;;;;;;3.70;1.88;;;;;;;;;;4957332;28;20031;-89
2022/12/27 07:02:41;;;;;;;6.75;2.38;;;;;;;;;;4969321;28;20050;-90
2022/12/27 07:05:13;;;;;;;7.93;2.13;;;;;;;;;;4973732;28;20097;-90
2022/12/27 07:07:41;;;;;;;4.55;1.92;;;;;;;;;;4968399;28;20493;-89
2022/12/27 07:10:10;;;;;;;13.40;2.47;;;;;;;;;;4969414;28;20066;-89
2022/12/27 07:12:38;;;;;;;7.45;2.30;;;;;;;;;;4970051;28;20042;-89
2022/12/27 07:15:06;;;;;;;9.20;2.08;;;;;;;;;;4971495;28;20040;-89
2022/12/27 07:17:35;;;;;;;6.18;1.90;;;;;;;;;;4981168;28;20047;-89
2022/12/27 07:20:08;;;;;;;9.45;2.17;;;;;;;;;;4975267;28;20439;-89
2022/12/27 07:22:59;;;;;;;7.07;1.83;;;;;;;;;;4984838;28;20045;-90
2022/12/27 07:25:51;;;;;;;9.05;2.33;;;;;;;;;;4956254;28;20046;-89
2022/12/27 07:28:20;;;;;;;5.15;2.00;;;;;;;;;;4981544;28;20049;-89
2022/12/27 07:30:48;;;;;;;10.77;2.35;;;;;;;;;;4964699;28;20757;-89
2022/12/27 07:33:15;;;;;;;6.45;2.10;;;;;;;;;;4964296;28;20035;-90
2022/12/27 07:36:09;;;;;;;12.23;2.60;;;;;;;;;;4950881;28;20062;-90
2022/12/27 07:38:38;;;;;;;6.72;2.22;;;;;;;;;;4949928;28;20047;-89
2022/12/27 07:41:06;;;;;;;8.18;2.28;;;;;;;;;;4955364;28;20515;-89
2022/12/27 07:43:40;;;;;;;8.65;2.38;;;;;;;;;;4981589;28;20490;-89
2022/12/27 07:46:13;;;;;;;9.13;1.80;;;;;;;;;;4965983;28;20070;-89
2022/12/27 07:48:46;;;;;;;12.73;2.58;;;;;;;;;;4968396;28;20039;-90
2022/12/27 07:51:15;;;;;;;9.30;2.20;;;;;;;;;;4952150;28;20043;-89
2022/12/27 07:53:48;;;;;;;5.47;2.00;;;;;;;;;;4970284;28;20035;-90
2022/12/27 07:56:24;;;;;;;4.22;2.13;;;;;;;;;;4983518;28;20043;-90
2022/12/27 07:58:56;;;;;;;6.22;2.35;;;;;;;;;;4968895;28;20121;-90
2022/12/27 08:01:26;;;;;;;7.50;2.70;;;;;;;;;;4987369;28;20051;-90
2022/12/27 08:03:54;;;;;;;5.05;2.47;;;;;;;;;;4956602;28;20093;-89
2022/12/27 08:06:32;;;;;;;12.80;2.20;;;;;;;;;;4967404;28;20051;-89
2022/12/27 08:09:05;;;;;;;11.70;2.10;;;;;;;;;;4986877;28;20043;-89
2022/12/27 08:11:33;;;;;;;8.02;2.22;;;;;;;;;;4968750;28;20134;-90
2022/12/27 08:14:30;;;;;;;8.07;2.28;;;;;;;;;;4973055;28;20128;-90
2022/12/27 08:17:03;;;;;;;8.02;2.58;;;;;;;;;;4962986;28;20046;-90
2022/12/27 08:19:35;;;;;;;7.38;2.20;;;;;;;;;;4970163;28;20049;-90
2022/12/27 08:22:04;;;;;;;4.97;2.42;;;;;;;;;;4970702;28;20053;-89
2022/12/27 08:24:32;;;;;;;9.80;2.08;;;;;;;;;;4968212;28;20513;-90
2022/12/27 08:26:59;;;;;;;4.68;2.38;;;;;;;;;;4963475;28;20043;-89
2022/12/27 08:29:28;;;;;;;6.88;2.20;;;;;;;;;;4965038;28;20073;-89
2022/12/27 08:31:56;;;;;;;6.53;1.83;;;;;;;;;;4968452;28;20054;-89
2022/12/27 08:34:32;;;;;;;8.88;2.47;;;;;;;;;;4963168;28;20039;-89
2022/12/27 08:37:00;;;;;;;3.30;1.50;;;;;;;;;;4961171;28;20053;-89
2022/12/27 08:39:30;;;;;;;6.68;2.25;;;;;;;;;;4966686;28;20054;-89
2022/12/27 08:42:00;;;;;;;7.22;2.28;;;;;;;;;;4966596;28;20058;-89
2022/12/27 08:44:28;;;;;;;6.90;1.98;;;;;;;;;;4968779;28;20074;-89
2022/12/27 08:46:56;;;;;;;4.20;1.60;;;;;;;;;;4970259;28;20062;-89
2022/12/27 08:49:24;;;;;;;7.30;1.77;;;;;;;;;;4967011;28;20445;-88
2022/12/27 08:51:51;;;;;;;10.52;1.95;;;;;;;;;;4965894;28;20054;-88
2022/12/27 08:54:23;;;;;;;8.25;2.05;;;;;;;;;;4960343;28;20054;-86
2022/12/27 08:56:56;;;;;;;6.25;1.83;;;;;;;;;;4972633;28;20051;-88
2022/12/27 08:59:23;;;;;;;6.18;1.80;;;;;;;;;;4963352;28;20138;-89
2022/12/27 09:01:57;;;;;;;6.75;1.90;;;;;;;;;;4954050;28;20053;-89
2022/12/27 09:04:25;;;;;;;6.78;2.15;;;;;;;;;;4965725;28;20069;-88
2022/12/27 09:06:53;;;;;;;8.30;2.50;;;;;;;;;;4966060;28;20047;-89
2022/12/27 09:09:21;;;;;;;8.25;2.97;;;;;;;;;;4969168;28;20043;-89
2022/12/27 09:12:15;;;;;;;7.07;2.05;;;;;;;;;;4968908;28;20049;-89
2022/12/27 09:14:43;;;;;;;8.48;2.20;;;;;;;;;;4972957;28;20063;-88
2022/12/27 09:17:12;;;;;;;10.73;2.38;;;;;;;;;;4960712;28;20493;-88
2022/12/27 09:19:43;;;;;;;7.82;1.98;;;;;;;;;;4969326;28;20049;-89
2022/12/27 09:22:35;;;;;;;5.20;1.98;;;;;;;;;;4972252;28;20512;-90
2022/12/27 09:25:10;;;;;;;12.00;2.50;;;;;;;;;;4982145;28;20047;-90
2022/12/27 09:27:38;;;;;;;6.53;2.20;;;;;;;;;;4978178;28;20049;-89
2022/12/27 09:30:07;;;;;;;8.90;2.15;;;;;;;;;;4960000;28;20038;-86
2022/12/27 09:32:35;;;;;;;7.65;2.88;;;;;;;;;;4959121;28;20035;-86
2022/12/27 09:35:04;;;;;;;16.17;2.85;;;;;;;;;;4961523;28;20047;-89
2022/12/27 09:37:32;;;;;;;9.82;2.50;;;;;;;;;;4978309;28;20098;-91
2022/12/27 09:39:59;;;;;;;8.02;2.08;;;;;;;;;;4952377;28;20073;-90
2022/12/27 09:42:40;;;;;;;5.75;1.88;;;;;;;;;;4973648;28;20043;-90
2022/12/27 09:45:49;;;;;;;6.72;1.98;;;;;;;;;;4971007;28;20035;-91
2022/12/27 09:48:37;;;;;;;15.23;2.50;;;;;;;;;;4967106;28;20050;-89
2022/12/27 09:51:22;;;;;;;14.32;3.22;;;;;;;;;;4969133;28;20048;-89
2022/12/27 09:54:09;;;;;;;9.15;2.47;;;;;;;;;;4965714;28;20074;-88
2022/12/27 09:56:36;;;;;;;17.33;2.22;;;;;;;;;;4963085;28;20045;-90
2022/12/27 09:59:30;;;;;;;12.25;2.40;;;;;;;;;;4962143;28;20043;-89
2022/12/27 10:01:57;;;;;;;8.25;1.88;;;;;;;;;;4963707;28;20047;-89
2022/12/27 10:04:28;;;;;;;6.80;2.35;;;;;;;;;;4967720;28;20043;-89
2022/12/27 10:07:45;;;;;;;9.68;1.95;;;;;;;;;;4968950;28;20039;-89
2022/12/27 10:10:25;;;;;;;8.93;2.10;;;;;;;;;;4965724;28;20063;-89
2022/12/27 10:13:27;;;;;;;7.20;2.35;;;;;;;;;;4965089;28;20050;-89
2022/12/27 10:16:12;;;;;;;12.38;2.25;;;;;;;;;;4981237;28;20047;-89
2022/12/27 10:19:01;;;;;;;7.45;2.08;;;;;;;;;;4964348;28;20050;-89
2022/12/27 10:22:25;;;;;;;11.30;2.15;;;;;;;;;;4969316;28;20038;-90
2022/12/27 10:24:58;;;;;;;3.97;1.70;;;;;;;;;;4965123;28;20059;-89
2022/12/27 10:27:27;;;;;;;8.02;1.90;;;;;;;;;;4980166;28;20035;-89
2022/12/27 10:29:58;;;;;;;12.77;2.70;;;;;;;;;;4966057;28;20090;-89
2022/12/27 10:32:26;;;;;;;7.90;1.80;;;;;;;;;;4978195;28;20039;-89
2022/12/27 10:35:00;;;;;;;9.20;1.70;;;;;;;;;;4962035;28;20063;-89
2022/12/27 10:37:30;;;;;;;8.80;1.55;;;;;;;;;;4961755;28;20105;-89
2022/12/27 10:40:20;;;;;;;7.90;1.85;;;;;;;;;;4963524;28;20407;-89
2022/12/27 10:46:31;;;;;;;10.23;2.72;;;;;;;;;;4962516;28;20047;-89
2022/12/27 10:49:37;;;;;;;8.35;1.75;;;;;;;;;;4955496;28;20486;-90
2022/12/27 10:52:10;;;;;;;8.95;2.08;;;;;;;;;;4958881;28;20058;-89
2022/12/27 10:54:56;;;;;;;11.88;2.13;;;;;;;;;;4965578;28;20114;-89
2022/12/27 10:57:33;;;;;;;15.27;2.13;;;;;;;;;;4963179;28;20055;-89
2022/12/27 11:00:21;;;;;;;8.77;1.77;;;;;;;;;;4966823;28;20043;-89
2022/12/27 11:03:38;;;;;;;11.48;1.98;;;;;;;;;;4966497;28;20089;-89
2022/12/27 11:06:22;;;;;;;9.05;3.35;;;;;;;;;;4966847;28;20039;-89
2022/12/27 11:08:51;;;;;;;12.60;2.17;;;;;;;;;;4967553;28;20043;-89
2022/12/27 11:11:43;;;;;;;14.07;1.80;;;;;;;;;;4959348;28;20050;-89
2022/12/27 11:14:17;;;;;;;11.65;2.92;;;;;;;;;;4975863;28;20063;-89
2022/12/27 11:16:55;;;;;;;6.05;1.75;;;;;;;;;;4974152;28;20047;-89
2022/12/27 11:19:24;;;;;;;7.25;1.70;;;;;;;;;;4971793;28;20093;-89
2022/12/27 11:21:54;;;;;;;12.00;2.13;;;;;;;;;;4971324;28;20416;-89
2022/12/27 11:24:22;;;;;;;6.75;2.35;;;;;;;;;;4985375;28;20062;-89
2022/12/27 11:26:53;;;;;;;14.13;2.45;;;;;;;;;;4968737;28;20050;-89
2022/12/27 11:29:25;;;;;;;7.35;2.05;;;;;;;;;;4972507;28;20053;-89
2022/12/27 11:32:05;;;;;;;6.60;1.92;;;;;;;;;;4961686;28;20485;-88
2022/12/27 11:34:43;;;;;;;7.25;2.88;;;;;;;;;;4974013;28;20046;-89
2022/12/27 11:37:19;;;;;;;10.88;2.97;;;;;;;;;;4967777;28;20045;-89
2022/12/27 11:40:11;;;;;;;10.70;2.00;;;;;;;;;;4972946;28;20134;-89
2022/12/27 11:43:11;;;;;;;11.70;2.22;;;;;;;;;;4967694;28;20043;-89
2022/12/27 11:45:49;;;;;;;12.10;2.10;;;;;;;;;;4970596;28;20049;-89
2022/12/27 11:48:25;;;;;;;8.55;2.08;;;;;;;;;;4967974;28;20071;-89
2022/12/27 11:51:45;;;;;;;11.82;2.20;;;;;;;;;;4983322;28;20035;-89
2022/12/27 11:54:32;;;;;;;11.32;1.58;;;;;;;;;;4971133;28;20045;-89
2022/12/27 11:57:20;;;;;;;5.53;1.75;;;;;;;;;;4971738;28;20053;-89
2022/12/27 12:00:25;;;;;;;7.43;1.67;;;;;;;;;;4969767;28;20031;-89
2022/12/27 12:03:30;;;;;;;10.20;1.60;;;;;;;;;;4970086;28;20098;-89
2022/12/27 12:06:36;;;;;;;10.48;1.55;;;;;;;;;;4966913;28;20138;-89
2022/12/27 12:09:35;;;;;;;6.22;1.60;;;;;;;;;;4957228;28;20506;-89
2022/12/27 12:12:41;;;;;;;6.60;1.83;;;;;;;;;;4939628;28;20051;-88
2022/12/27 12:15:55;;;;;;;4.93;1.65;;;;;;;;;;4969070;28;20135;-89
2022/12/27 12:18:50;;;;;;;13.05;1.73;;;;;;;;;;4966754;28;20047;-89
2022/12/27 12:21:43;;;;;;;7.10;2.00;;;;;;;;;;4967131;28;20038;-89
2022/12/27 12:24:31;;;;;;;7.78;1.80;;;;;;;;;;4980427;28;20422;-89
2022/12/27 12:27:02;;;;;;;13.93;2.15;;;;;;;;;;4966265;28;20074;-88
2022/12/27 12:30:12;;;;;;;12.02;2.10;;;;;;;;;;4969273;28;20041;-89
2022/12/27 12:33:02;;;;;;;6.32;1.42;;;;;;;;;;4962228;28;20035;-88
2022/12/27 12:35:29;;;;;;;9.73;1.60;;;;;;;;;;4974844;28;20391;-88
2022/12/27 12:38:02;;;;;;;5.07;1.45;;;;;;;;;;4961428;28;20066;-88
2022/12/27 12:41:04;;;;;;;9.77;1.80;;;;;;;;;;4960224;28;20070;-88
2022/12/27 12:44:07;;;;;;;3.42;1.33;;;;;;;;;;4978933;28;20394;-88
2022/12/27 12:47:16;;;;;;;10.95;2.28;;;;;;;;;;4979695;28;20106;-88
2022/12/27 12:49:59;;;;;;;8.38;1.73;;;;;;;;;;4918175;29;20051;-89
2022/12/27 12:52:34;;;;;;;7.30;1.48;;;;;;;;;;4908359;29;20044;-88
2022/12/27 12:55:26;;;;;;;12.52;1.83;;;;;;;;;;4908103;29;20062;-88
2022/12/27 12:58:30;;;;;;;11.30;1.98;;;;;;;;;;4917580;29;20047;-88
2022/12/27 13:01:28;;;;;;;15.15;2.20;;;;;;;;;;4909032;29;20056;-89
2022/12/27 13:04:38;;;;;;;13.98;2.05;;;;;;;;;;4921701;29;20051;-89
2022/12/27 13:07:46;;;;;;;11.52;2.35;;;;;;;;;;4920021;29;20056;-88
2022/12/27 13:10:29;;;;;;;5.60;1.50;;;;;;;;;;4910198;29;20051;-89
2022/12/27 13:13:11;;;;;;;6.03;1.60;;;;;;;;;;4892185;29;20514;-88
2022/12/27 13:16:10;;;;;;;12.35;1.95;;;;;;;;;;4920315;29;20048;-88
2022/12/27 13:19:06;;;;;;;5.15;1.45;;;;;;;;;;4921319;29;20050;-89
2022/12/27 13:22:07;;;;;;;7.00;1.55;;;;;;;;;;4923320;29;20593;-89
2022/12/27 13:25:06;;;;;;;7.00;1.33;;;;;;;;;;4921279;29;20040;-88
2022/12/27 13:27:44;;;;;;;9.25;1.67;;;;;;;;;;4952920;28;20055;-89
2022/12/27 13:30:15;;;;;;;7.22;1.85;;;;;;;;;;4964812;28;20046;-88
2022/12/27 13:33:12;;;;;;;7.60;1.90;;;;;;;;;;4961334;28;20035;-89
2022/12/27 13:36:14;;;;;;;6.50;1.88;;;;;;;;;;4973200;28;20051;-88
2022/12/27 13:39:07;;;;;;;9.77;1.80;;;;;;;;;;4958995;28;20839;-88
2022/12/27 13:42:00;;;;;;;8.93;1.92;;;;;;;;;;4964129;28;20047;-90
2022/12/27 13:44:52;;;;;;;13.55;2.03;;;;;;;;;;4967045;28;20137;-88
2022/12/27 13:47:47;;;;;;;7.28;1.65;;;;;;;;;;4960131;28;20124;-88
2022/12/27 13:50:28;;;;;;;7.68;1.90;;;;;;;;;;4959474;28;20055;-89
2022/12/27 13:53:49;;;;;;;7.88;2.55;;;;;;;;;;4964283;28;20035;-88
2022/12/27 13:57:07;;;;;;;9.60;2.42;;;;;;;;;;4960674;28;20042;-89
2022/12/27 14:00:13;;;;;;;8.77;2.40;;;;;;;;;;4963736;28;20047;-89
2022/12/27 14:03:00;;;;;;;11.48;2.22;;;;;;;;;;4959850;28;20045;-88
2022/12/27 14:06:16;;;;;;;4.95;1.55;;;;;;;;;;4966365;28;20038;-89
2022/12/27 14:08:55;;;;;;;7.95;1.95;;;;;;;;;;4960234;28;20039;-88
2022/12/27 14:12:00;;;;;;;8.40;2.40;;;;;;;;;;4965255;28;20059;-89
2022/12/27 14:14:37;;;;;;;8.25;2.50;;;;;;;;;;4957861;28;20051;-88
2022/12/27 14:18:14;;;;;;;7.78;2.22;;;;;;;;;;4958387;28;20473;-89
2022/12/27 14:21:26;;;;;;;6.75;2.10;;;;;;;;;;4972716;28;20034;-88
2022/12/27 14:23:56;;;;;;;8.13;2.45;;;;;;;;;;4976126;28;20513;-89
2022/12/27 14:26:42;;;;;;;8.52;2.15;;;;;;;;;;4979276;28;20058;-88
2022/12/27 14:29:52;;;;;;;11.38;2.72;;;;;;;;;;4960677;28;20046;-89
2022/12/27 14:32:25;;;;;;;10.75;2.42;;;;;;;;;;4959315;28;20047;-88
2022/12/27 14:35:27;;;;;;;8.20;2.00;;;;;;;;;;4970418;28;20075;-88
2022/12/27 14:38:33;;;;;;;7.28;2.30;;;;;;;;;;4965801;28;20101;-88
2022/12/27 14:41:36;;;;;;;8.13;2.25;;;;;;;;;;4963799;28;20039;-89
2022/12/27 14:44:27;;;;;;;6.47;1.77;;;;;;;;;;4960768;28;20034;-88
2022/12/27 14:47:17;;;;;;;7.70;1.90;;;;;;;;;;4965157;28;20050;-88
2022/12/27 14:50:16;;;;;;;11.93;2.03;;;;;;;;;;4972572;28;20047;-88
2022/12/27 14:53:09;;;;;;;9.75;1.95;;;;;;;;;;4963987;28;20045;-88
2022/12/27 14:55:54;;;;;;;11.30;2.42;;;;;;;;;;4951625;28;20049;-89
2022/12/27 14:58:46;;;;;;;11.82;2.17;;;;;;;;;;4963759;28;20039;-89
2022/12/27 15:01:28;;;;;;;10.43;2.70;;;;;;;;;;4978906;28;20039;-88
2022/12/27 15:04:25;;;;;;;5.07;1.80;;;;;;;;;;4964016;28;20093;-88
2022/12/27 15:06:59;;;;;;;10.60;1.83;;;;;;;;;;4950878;28;20722;-88
2022/12/27 15:09:53;;;;;;;10.93;1.75;;;;;;;;;;4964054;28;20619;-88
2022/12/27 15:12:56;;;;;;;7.80;2.00;;;;;;;;;;4955256;28;20540;-88
2022/12/27 15:15:45;;;;;;;6.43;1.83;;;;;;;;;;4984241;28;20133;-88
2022/12/27 15:18:36;;;;;;;8.95;1.95;;;;;;;;;;4962539;28;20050;-89
2022/12/27 15:21:19;;;;;;;7.90;2.15;;;;;;;;;;4965822;28;20046;-88
2022/12/27 15:23:52;;;;;;;5.35;2.33;;;;;;;;;;4962074;28;20054;-89
2022/12/27 15:26:41;;;;;;;11.27;2.47;;;;;;;;;;4961070;28;20047;-89
2022/12/27 15:29:44;;;;;;;10.98;2.55;;;;;;;;;;4964804;28;20050;-90
2022/12/27 15:32:38;;;;;;;5.47;2.22;;;;;;;;;;4959847;28;20623;-89
2022/12/27 15:35:19;;;;;;;6.13;2.70;;;;;;;;;;4963236;28;20129;-89
2022/12/27 15:37:45;;;;;;;13.82;2.65;;;;;;;;;;4969129;28;20057;-89
2022/12/27 15:40:27;;;;;;;7.63;2.50;;;;;;;;;;4965577;28;21039;-89
2022/12/27 15:43:31;;;;;;;9.00;2.50;;;;;;;;;;4977035;28;20043;-89
2022/12/27 15:46:09;;;;;;;7.78;2.67;;;;;;;;;;4947153;28;20046;-89
2022/12/27 15:49:02;;;;;;;13.25;2.97;;;;;;;;;;4958918;28;20051;-89
2022/12/27 15:51:57;;;;;;;9.52;2.80;;;;;;;;;;4961255;28;20473;-90
2022/12/27 15:54:44;;;;;;;12.23;2.75;;;;;;;;;;4966196;28;20054;-89
2022/12/27 15:57:50;;;;;;;6.90;2.42;;;;;;;;;;4962253;28;20038;-88
2022/12/27 16:00:29;;;;;;;8.82;2.55;;;;;;;;;;4983440;28;20046;-90
2022/12/27 16:03:36;;;;;;;8.13;2.63;;;;;;;;;;4962331;28;20086;-89
2022/12/27 16:06:06;;;;;;;11.77;2.72;;;;;;;;;;4981690;28;20051;-89
2022/12/27 16:08:40;;;;;;;12.43;4.00;;;;;;;;;;4959979;28;20490;-90
2022/12/27 16:11:14;;;;;;;8.63;3.33;;;;;;;;;;4963379;28;20050;-89
2022/12/27 16:13:49;;;;;;;10.27;3.35;;;;;;;;;;4964133;28;20069;-89
2022/12/27 16:16:27;;;;;;;10.40;3.95;;;;;;;;;;4960886;28;20046;-89
2022/12/27 16:19:12;;;;;;;7.00;3.55;;;;;;;;;;4964195;28;20074;-89
2022/12/27 16:21:45;;;;;;;11.70;3.60;;;;;;;;;;4961930;28;20109;-89
2022/12/27 16:24:17;;;;;;;10.73;3.72;;;;;;;;;;4946808;28;20043;-89
2022/12/27 16:27:25;;;;;;;17.33;3.38;;;;;;;;;;4961406;28;20062;-89
2022/12/27 16:29:55;;;;;;;12.15;3.75;;;;;;;;;;4961729;28;20097;-89
2022/12/27 16:32:27;;;;;;;10.52;3.30;;;;;;;;;;4959839;28;20417;-89
2022/12/27 16:35:11;;;;;;;11.88;3.50;;;;;;;;;;4963899;28;20038;-89
2022/12/27 16:37:51;;;;;;;11.52;3.28;;;;;;;;;;4958842;28;20551;-89
2022/12/27 16:40:49;;;;;;;11.15;3.72;;;;;;;;;;4978013;28;20039;-89
2022/12/27 16:43:19;;;;;;;12.15;3.47;;;;;;;;;;4929500;28;20043;-89
2022/12/27 16:46:23;;;;;;;10.82;3.70;;;;;;;;;;4973766;28;20541;-90
2022/12/27 16:49:13;;;;;;;13.15;3.72;;;;;;;;;;4959384;28;20035;-90
2022/12/27 16:52:11;;;;;;;10.88;3.60;;;;;;;;;;4958065;28;20494;-90
2022/12/27 16:55:04;;;;;;;6.25;3.38;;;;;;;;;;4960205;28;20090;-90
2022/12/27 16:57:41;;;;;;;11.27;4.05;;;;;;;;;;4953885;28;20035;-88
2022/12/27 17:00:10;;;;;;;13.18;3.95;;;;;;;;;;4966964;28;20047;-88
2022/12/27 17:02:42;;;;;;;10.70;4.10;;;;;;;;;;4945818;28;20057;-90
2022/12/27 17:05:13;;;;;;;10.00;3.78;;;;;;;;;;4956789;28;20410;-89
2022/12/27 17:08:19;;;;;;;9.85;4.22;;;;;;;;;;4971020;28;20046;-89
2022/12/27 17:10:50;;;;;;;9.70;4.25;;;;;;;;;;4961641;28;20046;-88
2022/12/27 17:13:39;;;;;;;13.07;4.13;;;;;;;;;;4967536;28;20031;-89
2022/12/27 17:16:40;;;;;;;9.20;4.25;;;;;;;;;;4965752;28;20042;-90
2022/12/27 17:19:22;;;;;;;12.40;4.15;;;;;;;;;;4964151;28;20043;-90
2022/12/27 17:21:58;;;;;;;14.35;3.97;;;;;;;;;;4974232;28;20042;-90
2022/12/27 17:24:26;;;;;;;14.68;4.25;;;;;;;;;;4975963;28;20409;-90
2022/12/27 17:27:07;;;;;;;13.93;4.20;;;;;;;;;;4966734;28;20039;-88
2022/12/27 17:30:16;;;;;;;9.20;4.47;;;;;;;;;;4963696;28;20093;-91
2022/12/27 17:33:08;;;;;;;13.82;4.82;;;;;;;;;;4939310;28;20035;-90
2022/12/27 17:36:13;;;;;;;11.35;4.25;;;;;;;;;;4980172;28;20046;-90
2022/12/27 17:38:55;;;;;;;12.10;4.32;;;;;;;;;;4960707;28;20045;-89
2022/12/27 17:45:12;;;;;;;12.75;4.25;;;;;;;;;;4971023;28;20043;-91
2022/12/27 17:48:07;;;;;;;12.23;4.57;;;;;;;;;;4969053;28;20043;-90
2022/12/27 17:50:37;;;;;;;12.95;5.03;;;;;;;;;;4971313;28;20051;-91